createdAt,value
2019-01-31T12:27:05.469Z,54.83
2019-01-31T12:29:34.178Z,54.10
2019-01-31T12:32:02.820Z,54.38
2019-01-31T12:34:31.375Z,54.81
2019-01-31T12:37:00.033Z,56.16
2019-01-31T12:39:30.078Z,57.53
2019-01-31T12:41:58.561Z,57.15
2019-01-31T12:44:27.270Z,56.93
2019-01-31T12:46:56.249Z,57.19
2019-01-31T12:49:24.720Z,56.64
2019-01-31T12:51:53.201Z,56.37
2019-01-31T12:54:22.449Z,55.91
2019-01-31T12:56:51.331Z,56.28
2019-01-31T12:59:20.541Z,55.94
2019-01-31T13:01:49.366Z,55.89
2019-01-31T13:04:20.534Z,55.49
2019-01-31T13:06:48.544Z,56.17
2019-01-31T13:09:18.868Z,56.53
2019-01-31T13:11:47.693Z,56.58
2019-01-31T13:14:16.398Z,56.68
2019-01-31T13:16:45.299Z,56.74
2019-01-31T13:19:14.139Z,57.16
2019-01-31T13:21:43.086Z,57.08
2019-01-31T13:24:11.851Z,57.79
2019-01-31T13:26:40.775Z,58.50
2019-01-31T13:29:09.743Z,57.97
2019-01-31T13:31:38.796Z,59.66
2019-01-31T13:34:08.779Z,60.16
2019-01-31T13:36:37.435Z,60.61
2019-01-31T13:39:10.415Z,60.42
2019-01-31T13:41:41.786Z,61.03
2019-01-31T13:44:10.106Z,60.94
2019-01-31T13:46:39.123Z,61.35
2019-01-31T13:49:08.048Z,61.09
2019-01-31T13:51:36.779Z,61.41
2019-01-31T13:54:06.479Z,62.06
2019-01-31T13:56:45.274Z,61.69
2019-01-31T13:59:05.645Z,61.52
2019-01-31T14:01:34.439Z,63.10
2019-01-31T14:04:03.155Z,61.91
2019-01-31T14:06:32.061Z,62.68
2019-01-31T14:09:00.749Z,63.76
2019-01-31T14:11:29.622Z,63.39
2019-01-31T14:14:08.744Z,63.38
2019-01-31T14:16:29.243Z,63.51
2019-01-31T14:18:58.207Z,62.02
2019-01-31T14:21:26.882Z,63.04
2019-01-31T14:23:56.418Z,62.23
2019-01-31T14:26:25.173Z,64.52
2019-01-31T14:28:53.951Z,65.20
2019-01-31T14:31:22.808Z,65.40
2019-01-31T14:33:51.704Z,64.87
2019-01-31T14:36:20.585Z,66.22
2019-01-31T14:38:49.517Z,66.76
2019-01-31T14:41:18.258Z,66.16
2019-01-31T14:43:46.949Z,66.64
2019-01-31T14:46:15.954Z,66.97
2019-01-31T14:48:45.041Z,66.75
2019-01-31T14:51:13.702Z,67.07
2019-01-31T14:53:42.764Z,66.13
2019-01-31T14:56:11.588Z,65.50
2019-01-31T14:58:40.313Z,66.38
2019-01-31T15:01:09.064Z,66.76
2019-01-31T15:03:38.005Z,65.90
2019-01-31T15:06:06.771Z,65.74
2019-01-31T15:08:35.657Z,66.60
2019-01-31T15:11:05.094Z,68.08
2019-01-31T15:13:33.885Z,69.35
2019-01-31T15:16:04.194Z,68.22
2019-01-31T15:18:33.156Z,68.94
2019-01-31T15:21:01.969Z,69.05
2019-01-31T15:23:30.655Z,70.17
2019-01-31T15:25:59.448Z,71.79
2019-01-31T15:28:28.157Z,72.32
2019-01-31T15:30:56.917Z,72.65
2019-01-31T15:33:27.590Z,72.92
2019-01-31T15:35:56.471Z,68.97
2019-01-31T15:38:25.459Z,69.14
2019-01-31T15:40:54.204Z,70.29
2019-01-31T15:43:23.233Z,71.11
2019-01-31T15:45:51.955Z,70.73
2019-01-31T15:48:20.800Z,72.60
2019-01-31T15:50:49.517Z,72.09
2019-01-31T15:53:18.192Z,72.73
2019-01-31T15:55:46.967Z,73.00
2019-01-31T15:58:15.843Z,74.93
2019-01-31T16:00:49.808Z,74.78
2019-01-31T16:03:19.895Z,75.90
2019-01-31T16:05:49.264Z,75.96
2019-01-31T16:08:18.007Z,75.72
2019-01-31T16:10:47.262Z,75.12
2019-01-31T16:13:16.109Z,76.71
2019-01-31T16:15:45.241Z,77.28
2019-01-31T16:18:14.367Z,77.54
2019-01-31T16:20:43.577Z,77.61
2019-01-31T16:23:12.459Z,78.04
2019-01-31T16:25:41.889Z,79.03
2019-01-31T16:28:10.825Z,78.71
2019-01-31T16:30:39.517Z,79.46
2019-01-31T16:33:08.822Z,79.25
2019-01-31T16:35:37.516Z,79.42
2019-01-31T16:38:07.371Z,79.22
2019-01-31T16:40:36.202Z,79.05
2019-01-31T16:43:06.271Z,78.37
2019-01-31T16:45:34.980Z,78.89
2019-01-31T16:48:04.264Z,77.26
2019-01-31T16:50:33.410Z,77.83
2019-01-31T16:53:02.058Z,78.62
2019-01-31T16:55:31.274Z,78.09
2019-01-31T16:58:00.534Z,77.59
2019-01-31T17:00:32.000Z,77.59
2019-01-31T17:03:00.932Z,76.78
2019-01-31T17:05:31.897Z,77.08
2019-01-31T17:08:00.817Z,77.26
2019-01-31T17:10:29.685Z,76.59
2019-01-31T17:12:58.456Z,77.31
2019-01-31T17:15:27.414Z,76.29
2019-01-31T17:17:56.271Z,75.93
2019-01-31T17:20:36.803Z,76.23
2019-01-31T17:23:05.874Z,75.72
2019-01-31T17:25:34.529Z,75.79
2019-01-31T17:28:03.281Z,75.41
2019-01-31T17:30:31.960Z,75.45
2019-01-31T17:33:00.624Z,75.08
2019-01-31T17:35:29.317Z,74.21
2019-01-31T17:37:57.995Z,74.03
2019-01-31T17:40:35.529Z,73.87
2019-01-31T17:43:04.885Z,74.09
2019-01-31T17:45:33.548Z,73.36
2019-01-31T17:48:02.432Z,74.22
2019-01-31T17:50:31.092Z,72.09
2019-01-31T17:52:59.805Z,71.69
2019-01-31T17:55:28.895Z,72.19
2019-01-31T17:57:57.554Z,71.35
2019-01-31T18:00:39.372Z,72.46
2019-01-31T18:03:08.737Z,72.47
2019-01-31T18:05:37.418Z,73.13
2019-01-31T18:08:09.159Z,72.21
2019-01-31T18:10:36.960Z,72.58
2019-01-31T18:13:05.804Z,71.18
2019-01-31T18:15:41.691Z,70.75
2019-01-31T18:18:06.128Z,67.80
2019-01-31T18:20:34.820Z,67.68
2019-01-31T18:23:03.469Z,67.32
2019-01-31T18:25:32.178Z,67.88
2019-01-31T18:28:00.873Z,70.23
2019-01-31T18:30:32.419Z,69.07
2019-01-31T18:33:01.156Z,69.70
2019-01-31T18:35:30.801Z,69.85
2019-01-31T18:37:59.448Z,67.83
2019-01-31T18:40:33.582Z,68.19
2019-01-31T18:43:02.371Z,69.72
2019-01-31T18:45:33.759Z,71.85
2019-01-31T18:48:02.597Z,73.61
2019-01-31T18:50:36.925Z,75.96
2019-01-31T18:53:06.102Z,76.66
2019-01-31T18:55:34.804Z,76.07
2019-01-31T18:58:03.550Z,78.08
2019-01-31T19:00:37.923Z,77.89
2019-01-31T19:03:07.834Z,77.14
2019-01-31T19:05:36.605Z,76.57
2019-01-31T19:08:08.871Z,77.63
2019-01-31T19:10:43.441Z,77.75
2019-01-31T19:13:06.784Z,78.53
2019-01-31T19:15:35.495Z,78.11
2019-01-31T19:18:06.248Z,78.19
2019-01-31T19:20:35.453Z,79.26
2019-01-31T19:23:06.623Z,79.17
2019-01-31T19:25:35.287Z,78.31
2019-01-31T19:28:04.761Z,77.99
2019-01-31T19:30:38.002Z,79.59
2019-01-31T19:33:08.169Z,80.38
2019-01-31T19:35:37.544Z,80.51
2019-01-31T19:38:07.563Z,80.03
2019-01-31T19:40:38.599Z,80.60
2019-01-31T19:43:08.742Z,80.61
2019-01-31T19:45:40.321Z,80.98
2019-01-31T19:48:11.174Z,81.55
2019-01-31T19:50:43.393Z,81.52
2019-01-31T19:53:13.918Z,81.24
2019-01-31T19:55:42.896Z,82.14
2019-01-31T19:58:11.772Z,81.40
2019-01-31T20:00:40.811Z,81.93
2019-01-31T20:03:09.981Z,81.77
2019-01-31T20:05:38.717Z,82.71
2019-01-31T20:08:09.314Z,82.32
2019-01-31T20:10:38.033Z,82.35
2019-01-31T20:13:06.773Z,82.46
2019-01-31T20:15:35.642Z,82.92
2019-01-31T20:18:04.663Z,83.15
2019-01-31T20:20:33.562Z,82.78
2019-01-31T20:23:02.240Z,82.48
2019-01-31T20:25:31.758Z,82.57
2019-01-31T20:28:00.422Z,83.36
2019-01-31T20:30:31.097Z,83.26
2019-01-31T20:33:01.132Z,83.05
2019-01-31T20:35:30.309Z,83.19
2019-01-31T20:37:59.212Z,83.35
2019-01-31T20:40:39.079Z,83.19
2019-01-31T20:43:07.994Z,82.70
2019-01-31T20:45:37.064Z,82.97
2019-01-31T20:48:06.250Z,82.71
2019-01-31T20:50:36.921Z,82.60
2019-01-31T20:53:06.151Z,83.53
2019-01-31T20:55:34.823Z,83.80
2019-01-31T20:58:03.831Z,83.39
2019-01-31T21:00:38.447Z,83.28
2019-01-31T21:03:08.313Z,83.02
2019-01-31T21:05:37.485Z,82.72
2019-01-31T21:08:07.039Z,83.09
2019-01-31T21:10:36.093Z,83.53
2019-01-31T21:13:06.490Z,82.90
2019-01-31T21:15:35.174Z,83.58
2019-01-31T21:18:04.451Z,83.26
2019-01-31T21:20:33.110Z,83.27
2019-01-31T21:23:01.781Z,83.34
2019-01-31T21:25:34.525Z,82.50
2019-01-31T21:28:03.120Z,82.74
2019-01-31T21:30:34.482Z,83.10
2019-01-31T21:33:03.251Z,82.87
2019-01-31T21:35:32.118Z,82.99
2019-01-31T21:38:00.783Z,82.58
2019-01-31T21:40:34.669Z,82.64
2019-01-31T21:43:03.835Z,83.32
2019-01-31T21:45:32.502Z,83.19
2019-01-31T21:48:01.307Z,83.14
2019-01-31T21:50:33.809Z,83.34
2019-01-31T21:53:02.526Z,83.28
2019-01-31T21:55:31.331Z,83.50
2019-01-31T21:58:00.030Z,83.78
2019-01-31T22:00:34.356Z,83.11
2019-01-31T22:03:04.907Z,83.36
2019-01-31T22:05:33.787Z,83.13
2019-01-31T22:08:02.593Z,83.34
2019-01-31T22:10:31.582Z,83.09
2019-01-31T22:13:02.791Z,83.24
2019-01-31T22:15:33.918Z,83.50
2019-01-31T22:18:02.641Z,83.62
2019-01-31T22:20:31.319Z,82.46
2019-01-31T22:23:00.008Z,82.60
2019-01-31T22:25:28.761Z,82.97
2019-01-31T22:27:57.439Z,83.06
2019-01-31T22:30:34.802Z,82.86
2019-01-31T22:33:03.512Z,82.87
2019-01-31T22:35:32.514Z,82.61
2019-01-31T22:38:01.391Z,83.17
2019-01-31T22:40:30.142Z,83.42
2019-01-31T22:42:58.888Z,83.47
2019-01-31T22:45:29.850Z,83.70
2019-01-31T22:47:58.519Z,82.88
2019-01-31T22:50:27.272Z,83.12
2019-01-31T22:52:55.959Z,82.43
2019-01-31T22:55:26.624Z,82.49
2019-01-31T22:57:55.806Z,82.31
2019-01-31T23:00:35.048Z,83.19
2019-01-31T23:03:04.523Z,82.90
2019-01-31T23:05:33.207Z,83.39
2019-01-31T23:08:01.912Z,83.54
2019-01-31T23:10:30.920Z,82.77
2019-01-31T23:12:59.892Z,82.82
2019-01-31T23:15:28.578Z,82.89
2019-01-31T23:17:57.271Z,83.51
2019-01-31T23:20:26.059Z,82.81
2019-01-31T23:22:54.955Z,82.82
2019-01-31T23:25:23.684Z,81.78
2019-01-31T23:27:52.453Z,81.69
2019-01-31T23:30:21.058Z,82.22
2019-01-31T23:32:49.728Z,81.97
2019-01-31T23:35:18.400Z,81.65
2019-01-31T23:37:47.119Z,82.16
2019-01-31T23:40:16.596Z,81.99
2019-01-31T23:42:45.433Z,82.26
2019-01-31T23:45:18.774Z,81.96
2019-01-31T23:47:48.918Z,81.46
2019-01-31T23:50:17.994Z,80.84
2019-01-31T23:52:46.664Z,80.95
2019-01-31T23:55:17.041Z,81.13
2019-01-31T23:57:45.727Z,82.07
